sensor_id;sensor_type;location;lat;lon;timestamp;temperature;humidity
8269;DHT22;4174;48.304;16.364;2023-08-06T00:01:59;16.90;99.90
8269;DHT22;4174;48.304;16.364;2023-08-06T00:08:04;16.80;99.90
8269;DHT22;4174;48.304;16.364;2023-08-06T00:14:08;16.70;99.90
8269;DHT22;4174;48.304;16.364;2023-08-06T00:20:12;16.60;99.90
8269;DHT22;4174;48.304;16.364;2023-08-06T00:26:16;16.60;99.90
8269;DHT22;4174;48.304;16.364;2023-08-06T00:32:19;16.60;99.90
8269;DHT22;4174;48.304;16.364;2023-08-06T00:38:23;16.70;99.90
8269;DHT22;4174;48.304;16.364;2023-08-06T00:44:27;16.60;99.90
8269;DHT22;4174;48.304;16.364;2023-08-06T00:50:31;16.60;99.90
8269;DHT22;4174;48.304;16.364;2023-08-06T00:56:35;16.60;99.90
8269;DHT22;4174;48.304;16.364;2023-08-06T01:02:38;16.60;99.90
8269;DHT22;4174;48.304;16.364;2023-08-06T01:08:45;16.60;99.90
8269;DHT22;4174;48.304;16.364;2023-08-06T01:21:09;16.60;99.90
8269;DHT22;4174;48.304;16.364;2023-08-06T01:27:26;16.60;99.90
8269;DHT22;4174;48.304;16.364;2023-08-06T01:33:26;16.50;99.90
8269;DHT22;4174;48.304;16.364;2023-08-06T01:39:29;16.50;99.90
8269;DHT22;4174;48.304;16.364;2023-08-06T01:45:32;16.30;99.90
8269;DHT22;4174;48.304;16.364;2023-08-06T01:51:36;16.40;99.90
8269;DHT22;4174;48.304;16.364;2023-08-06T01:57:39;16.30;99.90
8269;DHT22;4174;48.304;16.364;2023-08-06T02:03:43;16.40;99.90
8269;DHT22;4174;48.304;16.364;2023-08-06T02:09:47;16.20;99.90
8269;DHT22;4174;48.304;16.364;2023-08-06T02:15:51;16.20;99.90
8269;DHT22;4174;48.304;16.364;2023-08-06T02:21:55;16.10;99.90
8269;DHT22;4174;48.304;16.364;2023-08-06T02:27:58;16.10;99.90
8269;DHT22;4174;48.304;16.364;2023-08-06T02:34:01;16.10;99.90
8269;DHT22;4174;48.304;16.364;2023-08-06T02:40:05;16.00;99.90
8269;DHT22;4174;48.304;16.364;2023-08-06T02:46:09;16.00;99.90
8269;DHT22;4174;48.304;16.364;2023-08-06T02:52:13;16.00;99.90
8269;DHT22;4174;48.304;16.364;2023-08-06T02:58:17;15.90;99.90
8269;DHT22;4174;48.304;16.364;2023-08-06T03:04:21;16.00;99.90
8269;DHT22;4174;48.304;16.364;2023-08-06T03:10:25;16.00;99.90
8269;DHT22;4174;48.304;16.364;2023-08-06T03:16:28;16.00;99.90
8269;DHT22;4174;48.304;16.364;2023-08-06T03:22:32;16.10;99.90
8269;DHT22;4174;48.304;16.364;2023-08-06T03:28:35;16.10;99.90
8269;DHT22;4174;48.304;16.364;2023-08-06T03:34:38;16.10;99.90
8269;DHT22;4174;48.304;16.364;2023-08-06T03:40:43;16.20;99.90
8269;DHT22;4174;48.304;16.364;2023-08-06T03:46:46;16.10;99.90
8269;DHT22;4174;48.304;16.364;2023-08-06T03:52:50;16.10;99.90
8269;DHT22;4174;48.304;16.364;2023-08-06T03:58:54;16.10;99.90
8269;DHT22;4174;48.304;16.364;2023-08-06T04:04:57;16.10;99.90
8269;DHT22;4174;48.304;16.364;2023-08-06T04:11:01;16.20;99.90
8269;DHT22;4174;48.304;16.364;2023-08-06T04:17:04;16.20;99.90
8269;DHT22;4174;48.304;16.364;2023-08-06T04:23:08;16.30;99.90
8269;DHT22;4174;48.304;16.364;2023-08-06T04:29:11;16.30;99.90
8269;DHT22;4174;48.304;16.364;2023-08-06T04:35:15;16.30;99.90
8269;DHT22;4174;48.304;16.364;2023-08-06T04:41:18;16.50;99.90
8269;DHT22;4174;48.304;16.364;2023-08-06T04:47:22;16.40;99.90
8269;DHT22;4174;48.304;16.364;2023-08-06T04:53:25;16.50;99.90
8269;DHT22;4174;48.304;16.364;2023-08-06T04:59:29;16.50;99.90
8269;DHT22;4174;48.304;16.364;2023-08-06T05:05:33;16.60;99.90
8269;DHT22;4174;48.304;16.364;2023-08-06T05:11:37;16.60;99.90
8269;DHT22;4174;48.304;16.364;2023-08-06T05:17:40;16.60;99.90
8269;DHT22;4174;48.304;16.364;2023-08-06T05:23:45;16.70;99.90
8269;DHT22;4174;48.304;16.364;2023-08-06T05:29:49;16.70;99.90
8269;DHT22;4174;48.304;16.364;2023-08-06T05:35:52;16.70;99.90
8269;DHT22;4174;48.304;16.364;2023-08-06T05:41:56;16.70;99.90
8269;DHT22;4174;48.304;16.364;2023-08-06T05:47:59;16.70;99.90
8269;DHT22;4174;48.304;16.364;2023-08-06T05:54:03;16.90;99.90
8269;DHT22;4174;48.304;16.364;2023-08-06T06:00:07;16.80;99.90
8269;DHT22;4174;48.304;16.364;2023-08-06T06:06:11;16.80;99.90
8269;DHT22;4174;48.304;16.364;2023-08-06T06:12:14;17.00;99.90
8269;DHT22;4174;48.304;16.364;2023-08-06T06:18:18;17.00;99.90
8269;DHT22;4174;48.304;16.364;2023-08-06T06:24:21;16.90;99.90
8269;DHT22;4174;48.304;16.364;2023-08-06T06:30:25;17.00;99.90
8269;DHT22;4174;48.304;16.364;2023-08-06T06:36:29;17.10;99.90
8269;DHT22;4174;48.304;16.364;2023-08-06T06:42:32;17.20;99.90
8269;DHT22;4174;48.304;16.364;2023-08-06T06:48:36;17.30;99.90
8269;DHT22;4174;48.304;16.364;2023-08-06T06:54:39;17.50;99.90
8269;DHT22;4174;48.304;16.364;2023-08-06T07:00:43;17.60;99.90
8269;DHT22;4174;48.304;16.364;2023-08-06T07:06:47;17.80;99.90
8269;DHT22;4174;48.304;16.364;2023-08-06T07:12:49;17.90;99.90
8269;DHT22;4174;48.304;16.364;2023-08-06T07:18:53;18.00;99.90
8269;DHT22;4174;48.304;16.364;2023-08-06T07:24:55;18.00;99.90
8269;DHT22;4174;48.304;16.364;2023-08-06T07:30:59;18.20;99.90
8269;DHT22;4174;48.304;16.364;2023-08-06T07:37:03;18.30;99.90
8269;DHT22;4174;48.304;16.364;2023-08-06T07:43:08;18.40;99.90
8269;DHT22;4174;48.304;16.364;2023-08-06T07:49:12;18.50;99.90
8269;DHT22;4174;48.304;16.364;2023-08-06T07:55:15;18.50;99.90
8269;DHT22;4174;48.304;16.364;2023-08-06T08:01:19;18.60;99.90
8269;DHT22;4174;48.304;16.364;2023-08-06T08:07:23;18.60;99.90
8269;DHT22;4174;48.304;16.364;2023-08-06T08:13:27;18.60;99.90
8269;DHT22;4174;48.304;16.364;2023-08-06T08:19:31;18.60;99.90
8269;DHT22;4174;48.304;16.364;2023-08-06T08:25:34;18.40;99.90
8269;DHT22;4174;48.304;16.364;2023-08-06T08:31:37;18.40;99.90
8269;DHT22;4174;48.304;16.364;2023-08-06T08:37:41;18.30;99.90
8269;DHT22;4174;48.304;16.364;2023-08-06T08:43:44;18.20;99.90
8269;DHT22;4174;48.304;16.364;2023-08-06T08:49:47;18.20;99.90
8269;DHT22;4174;48.304;16.364;2023-08-06T08:55:50;18.30;99.90
8269;DHT22;4174;48.304;16.364;2023-08-06T09:01:53;18.50;99.90
8269;DHT22;4174;48.304;16.364;2023-08-06T09:07:58;18.70;99.90
8269;DHT22;4174;48.304;16.364;2023-08-06T09:13:59;18.90;99.90
8269;DHT22;4174;48.304;16.364;2023-08-06T09:20:10;18.90;99.90
8269;DHT22;4174;48.304;16.364;2023-08-06T09:26:16;18.80;99.90
8269;DHT22;4174;48.304;16.364;2023-08-06T09:32:20;18.80;99.90
8269;DHT22;4174;48.304;16.364;2023-08-06T09:38:24;18.50;99.90
8269;DHT22;4174;48.304;16.364;2023-08-06T09:44:26;18.40;99.90
8269;DHT22;4174;48.304;16.364;2023-08-06T09:50:29;18.80;99.90
8269;DHT22;4174;48.304;16.364;2023-08-06T09:56:31;18.80;99.90
8269;DHT22;4174;48.304;16.364;2023-08-06T10:02:33;18.80;99.90
8269;DHT22;4174;48.304;16.364;2023-08-06T10:08:36;18.80;99.90
8269;DHT22;4174;48.304;16.364;2023-08-06T10:14:39;18.60;99.90
8269;DHT22;4174;48.304;16.364;2023-08-06T10:20:42;18.50;99.90
8269;DHT22;4174;48.304;16.364;2023-08-06T10:26:46;18.50;99.90
8269;DHT22;4174;48.304;16.364;2023-08-06T10:32:51;18.40;99.90
8269;DHT22;4174;48.304;16.364;2023-08-06T10:38:58;18.40;99.90
8269;DHT22;4174;48.304;16.364;2023-08-06T10:51:15;18.50;99.90
8269;DHT22;4174;48.304;16.364;2023-08-06T10:57:18;18.80;99.90
8269;DHT22;4174;48.304;16.364;2023-08-06T11:03:22;18.90;99.90
8269;DHT22;4174;48.304;16.364;2023-08-06T11:09:25;18.80;99.90
8269;DHT22;4174;48.304;16.364;2023-08-06T11:15:29;18.90;99.90
8269;DHT22;4174;48.304;16.364;2023-08-06T11:21:31;18.80;99.90
8269;DHT22;4174;48.304;16.364;2023-08-06T11:27:35;18.90;99.90
8269;DHT22;4174;48.304;16.364;2023-08-06T11:33:38;19.30;99.90
8269;DHT22;4174;48.304;16.364;2023-08-06T11:39:46;19.90;99.90
8269;DHT22;4174;48.304;16.364;2023-08-06T11:45:48;19.90;99.90
8269;DHT22;4174;48.304;16.364;2023-08-06T11:51:51;19.90;99.90
8269;DHT22;4174;48.304;16.364;2023-08-06T11:57:54;20.20;99.90
8269;DHT22;4174;48.304;16.364;2023-08-06T12:03:59;19.70;99.90
8269;DHT22;4174;48.304;16.364;2023-08-06T12:10:01;19.50;99.90
8269;DHT22;4174;48.304;16.364;2023-08-06T12:16:05;19.50;99.90
8269;DHT22;4174;48.304;16.364;2023-08-06T12:22:09;19.30;99.90
8269;DHT22;4174;48.304;16.364;2023-08-06T12:28:12;19.30;99.90
8269;DHT22;4174;48.304;16.364;2023-08-06T12:34:16;19.40;99.90
8269;DHT22;4174;48.304;16.364;2023-08-06T12:40:20;19.30;99.90
8269;DHT22;4174;48.304;16.364;2023-08-06T12:46:22;19.30;99.90
8269;DHT22;4174;48.304;16.364;2023-08-06T12:52:26;19.10;99.90
8269;DHT22;4174;48.304;16.364;2023-08-06T12:58:29;19.10;99.90
8269;DHT22;4174;48.304;16.364;2023-08-06T13:04:33;19.10;99.90
8269;DHT22;4174;48.304;16.364;2023-08-06T13:10:36;19.30;99.90
8269;DHT22;4174;48.304;16.364;2023-08-06T13:16:40;19.40;99.90
8269;DHT22;4174;48.304;16.364;2023-08-06T13:22:43;19.30;99.90
8269;DHT22;4174;48.304;16.364;2023-08-06T13:28:46;19.40;99.90
8269;DHT22;4174;48.304;16.364;2023-08-06T13:34:51;19.80;99.90
8269;DHT22;4174;48.304;16.364;2023-08-06T13:40:55;19.80;99.90
8269;DHT22;4174;48.304;16.364;2023-08-06T13:46:58;20.20;99.90
8269;DHT22;4174;48.304;16.364;2023-08-06T13:53:02;20.60;99.90
8269;DHT22;4174;48.304;16.364;2023-08-06T13:59:07;21.20;99.90
8269;DHT22;4174;48.304;16.364;2023-08-06T14:05:10;21.20;99.90
8269;DHT22;4174;48.304;16.364;2023-08-06T14:11:14;21.30;99.90
8269;DHT22;4174;48.304;16.364;2023-08-06T14:17:17;21.40;99.90
8269;DHT22;4174;48.304;16.364;2023-08-06T14:23:21;21.60;99.90
8269;DHT22;4174;48.304;16.364;2023-08-06T14:29:26;21.90;99.90
8269;DHT22;4174;48.304;16.364;2023-08-06T14:35:29;22.20;99.90
8269;DHT22;4174;48.304;16.364;2023-08-06T14:41:33;22.50;99.90
8269;DHT22;4174;48.304;16.364;2023-08-06T14:47:37;21.90;99.90
8269;DHT22;4174;48.304;16.364;2023-08-06T14:53:41;21.40;99.90
8269;DHT22;4174;48.304;16.364;2023-08-06T14:59:44;20.80;99.90
8269;DHT22;4174;48.304;16.364;2023-08-06T15:05:48;20.20;99.90
8269;DHT22;4174;48.304;16.364;2023-08-06T15:11:50;20.00;99.90
8269;DHT22;4174;48.304;16.364;2023-08-06T15:17:54;20.00;99.90
8269;DHT22;4174;48.304;16.364;2023-08-06T15:23:57;19.60;99.90
8269;DHT22;4174;48.304;16.364;2023-08-06T15:30:02;19.40;99.90
8269;DHT22;4174;48.304;16.364;2023-08-06T15:36:05;19.70;99.90
8269;DHT22;4174;48.304;16.364;2023-08-06T15:42:09;19.90;99.90
8269;DHT22;4174;48.304;16.364;2023-08-06T15:48:12;19.90;99.90
8269;DHT22;4174;48.304;16.364;2023-08-06T15:54:16;20.00;99.90
8269;DHT22;4174;48.304;16.364;2023-08-06T16:00:20;20.20;99.90
8269;DHT22;4174;48.304;16.364;2023-08-06T16:06:23;20.00;99.90
8269;DHT22;4174;48.304;16.364;2023-08-06T16:12:27;19.80;99.90
8269;DHT22;4174;48.304;16.364;2023-08-06T16:18:31;19.80;99.90
8269;DHT22;4174;48.304;16.364;2023-08-06T16:24:35;19.70;99.90
8269;DHT22;4174;48.304;16.364;2023-08-06T16:30:45;19.70;99.90
8269;DHT22;4174;48.304;16.364;2023-08-06T16:36:47;19.70;99.90
8269;DHT22;4174;48.304;16.364;2023-08-06T16:42:51;19.60;99.90
8269;DHT22;4174;48.304;16.364;2023-08-06T16:48:55;19.40;99.90
8269;DHT22;4174;48.304;16.364;2023-08-06T16:54:59;19.20;99.90
8269;DHT22;4174;48.304;16.364;2023-08-06T17:01:03;19.10;99.90
8269;DHT22;4174;48.304;16.364;2023-08-06T17:07:06;19.00;99.90
8269;DHT22;4174;48.304;16.364;2023-08-06T17:13:10;18.80;99.90
8269;DHT22;4174;48.304;16.364;2023-08-06T17:19:14;18.50;99.90
8269;DHT22;4174;48.304;16.364;2023-08-06T17:25:18;18.50;99.90
8269;DHT22;4174;48.304;16.364;2023-08-06T17:31:22;18.40;99.90
8269;DHT22;4174;48.304;16.364;2023-08-06T17:37:27;18.40;99.90
8269;DHT22;4174;48.304;16.364;2023-08-06T17:43:30;18.20;99.90
8269;DHT22;4174;48.304;16.364;2023-08-06T17:49:34;18.20;99.90
8269;DHT22;4174;48.304;16.364;2023-08-06T17:55:42;18.00;99.90
8269;DHT22;4174;48.304;16.364;2023-08-06T18:01:46;17.80;99.90
8269;DHT22;4174;48.304;16.364;2023-08-06T18:07:50;17.80;99.90
8269;DHT22;4174;48.304;16.364;2023-08-06T18:13:53;17.90;99.90
8269;DHT22;4174;48.304;16.364;2023-08-06T18:19:57;17.80;99.90
8269;DHT22;4174;48.304;16.364;2023-08-06T18:26:01;17.70;99.90
8269;DHT22;4174;48.304;16.364;2023-08-06T18:32:05;17.60;99.90
8269;DHT22;4174;48.304;16.364;2023-08-06T18:38:09;17.60;99.90
8269;DHT22;4174;48.304;16.364;2023-08-06T18:44:12;17.60;99.90
8269;DHT22;4174;48.304;16.364;2023-08-06T18:50:16;17.50;99.90
8269;DHT22;4174;48.304;16.364;2023-08-06T18:56:20;17.50;99.90
8269;DHT22;4174;48.304;16.364;2023-08-06T19:02:24;17.40;99.90
8269;DHT22;4174;48.304;16.364;2023-08-06T19:08:28;17.30;99.90
8269;DHT22;4174;48.304;16.364;2023-08-06T19:14:31;17.30;99.90
8269;DHT22;4174;48.304;16.364;2023-08-06T19:20:34;17.40;99.90
8269;DHT22;4174;48.304;16.364;2023-08-06T19:26:40;17.20;99.90
8269;DHT22;4174;48.304;16.364;2023-08-06T19:32:44;17.10;99.90
8269;DHT22;4174;48.304;16.364;2023-08-06T19:38:48;16.90;99.90
8269;DHT22;4174;48.304;16.364;2023-08-06T19:44:52;16.80;99.90
8269;DHT22;4174;48.304;16.364;2023-08-06T19:50:56;16.80;99.90
8269;DHT22;4174;48.304;16.364;2023-08-06T19:57:02;16.70;99.90
8269;DHT22;4174;48.304;16.364;2023-08-06T20:03:07;16.60;99.90
8269;DHT22;4174;48.304;16.364;2023-08-06T20:09:10;16.60;99.90
8269;DHT22;4174;48.304;16.364;2023-08-06T20:15:16;16.50;99.90
8269;DHT22;4174;48.304;16.364;2023-08-06T20:21:19;16.50;99.90
8269;DHT22;4174;48.304;16.364;2023-08-06T20:27:23;16.50;99.90
8269;DHT22;4174;48.304;16.364;2023-08-06T20:33:27;16.40;99.90
8269;DHT22;4174;48.304;16.364;2023-08-06T20:39:31;16.40;99.90
8269;DHT22;4174;48.304;16.364;2023-08-06T20:45:35;16.50;99.90
8269;DHT22;4174;48.304;16.364;2023-08-06T20:51:39;16.40;99.90
8269;DHT22;4174;48.304;16.364;2023-08-06T20:57:43;16.30;99.90
8269;DHT22;4174;48.304;16.364;2023-08-06T21:03:48;16.20;99.90
8269;DHT22;4174;48.304;16.364;2023-08-06T21:09:51;16.10;99.90
8269;DHT22;4174;48.304;16.364;2023-08-06T21:15:57;16.00;99.90
8269;DHT22;4174;48.304;16.364;2023-08-06T21:22:00;16.00;99.90
8269;DHT22;4174;48.304;16.364;2023-08-06T21:28:03;15.90;99.90
8269;DHT22;4174;48.304;16.364;2023-08-06T21:34:07;15.80;99.90
8269;DHT22;4174;48.304;16.364;2023-08-06T21:40:11;15.80;99.90
8269;DHT22;4174;48.304;16.364;2023-08-06T21:46:17;15.70;99.90
8269;DHT22;4174;48.304;16.364;2023-08-06T21:52:21;15.80;99.90
8269;DHT22;4174;48.304;16.364;2023-08-06T21:58:25;15.80;99.90
8269;DHT22;4174;48.304;16.364;2023-08-06T22:04:28;15.90;99.90
8269;DHT22;4174;48.304;16.364;2023-08-06T22:10:32;15.90;99.90
8269;DHT22;4174;48.304;16.364;2023-08-06T22:16:35;15.90;99.90
8269;DHT22;4174;48.304;16.364;2023-08-06T22:22:39;16.00;99.90
8269;DHT22;4174;48.304;16.364;2023-08-06T22:28:43;16.00;99.90
8269;DHT22;4174;48.304;16.364;2023-08-06T22:34:47;15.80;99.90
8269;DHT22;4174;48.304;16.364;2023-08-06T22:40:50;15.80;99.90
8269;DHT22;4174;48.304;16.364;2023-08-06T22:46:54;15.70;99.90
8269;DHT22;4174;48.304;16.364;2023-08-06T22:52:58;15.70;99.90
8269;DHT22;4174;48.304;16.364;2023-08-06T22:59:01;15.50;99.90
8269;DHT22;4174;48.304;16.364;2023-08-06T23:05:05;15.50;99.90
8269;DHT22;4174;48.304;16.364;2023-08-06T23:11:10;15.50;99.90
8269;DHT22;4174;48.304;16.364;2023-08-06T23:17:13;15.50;99.90
8269;DHT22;4174;48.304;16.364;2023-08-06T23:23:17;15.40;99.90
8269;DHT22;4174;48.304;16.364;2023-08-06T23:29:21;15.40;99.90
8269;DHT22;4174;48.304;16.364;2023-08-06T23:35:25;15.40;99.90
8269;DHT22;4174;48.304;16.364;2023-08-06T23:41:28;15.40;99.90
8269;DHT22;4174;48.304;16.364;2023-08-06T23:47:32;15.40;99.90
8269;DHT22;4174;48.304;16.364;2023-08-06T23:53:36;15.40;99.90
8269;DHT22;4174;48.304;16.364;2023-08-06T23:59:41;15.30;99.90
